Seven Bays, Washington
Current Conditions -  °F | °C
As of 10:58 PM on Saturday 25 Oct 2014 (Local Time) from KSKA Reporting Station
Broken Clouds Broken Clouds  
Wind Chill: 53°   Ceiling: 12000
Heat Index: 53°   Visibility: 10mi
Dew Point: 42°   Wind: 25mph
Humidity: 65%   Direction: 210°SSW
Pressure: 29.59"   Gusts: 41mph
Location:  47.7035°N, 118.192°W
Report Text: KSKA 260558Z AUTO 21022G36KT 10SM SCT085 BKN120 12/05 A2959 RMK AO2 PK WND 21041/47 SLP021 60002 T01170054 10164 20117 53019
Loading
Personal Weather Stations






























Interactive Weather Map
Tropical Storm Tracking
New forecast layout! Learn more

10-Day Weather Forecast

Advertisements
Track Severe Weather on mobile